Batesville, Arkansas
Current Conditions -  °F | °C
As of 4:15 PM on Saturday 20 Dec 2014 (Local Time) from KBVX Reporting Station
Overcast Overcast  
Wind Chill:   Ceiling: 2000
Heat Index:   Visibility: 9mi
Dew Point:   Wind: 5mph
Humidity: 71%   Direction: 90°E
Pressure: 30.23"   Gusts: NA
Location:  35.77°N, 91.65°W
Report Text: KBVX 202215Z AUTO 09004KT 9SM BKN020 OVC030 07/02 A3023 RMK AO1
Loading
Personal Weather Stations






























Interactive Weather Map New forecast layout! Learn more

10-Day Weather Forecast

Advertisements
Track Severe Weather on mobile